createdAt,value
2019-05-23T00:00:42.311Z,1005.90
2019-05-23T00:01:42.272Z,1005.93
2019-05-23T00:02:42.260Z,1005.93
2019-05-23T00:03:42.225Z,1005.95
2019-05-23T00:04:42.229Z,1005.96
2019-05-23T00:05:42.217Z,1005.94
2019-05-23T00:06:42.219Z,1005.92
2019-05-23T00:07:42.213Z,1005.94
2019-05-23T00:08:42.168Z,1005.90
2019-05-23T00:09:42.167Z,1005.92
2019-05-23T00:10:42.170Z,1005.98
2019-05-23T00:11:42.174Z,1006.02
2019-05-23T00:12:42.149Z,1006.03
2019-05-23T00:13:42.160Z,1006.00
2019-05-23T00:14:42.131Z,1006.00
2019-05-23T00:15:42.097Z,1006.02
2019-05-23T00:16:42.523Z,1006.00
2019-05-23T00:17:42.086Z,1006.07
2019-05-23T00:18:42.078Z,1005.99
2019-05-23T00:19:42.087Z,1005.97
2019-05-23T00:20:42.095Z,1006.01
2019-05-23T00:21:42.051Z,1005.95
2019-05-23T00:22:42.046Z,1006.10
2019-05-23T00:23:42.021Z,1005.99
2019-05-23T00:24:42.015Z,1006.01
2019-05-23T00:25:42.001Z,1006.10
2019-05-23T00:26:41.976Z,1006.05
2019-05-23T00:27:41.986Z,1006.06
2019-05-23T00:28:41.954Z,1006.05
2019-05-23T00:29:41.971Z,1005.99
2019-05-23T00:30:41.958Z,1006.03
2019-05-23T00:31:41.931Z,1006.08
2019-05-23T00:32:41.905Z,1006.01
2019-05-23T00:33:41.915Z,1006.00
2019-05-23T00:34:41.893Z,1006.04
2019-05-23T00:35:41.905Z,1005.97
2019-05-23T00:36:41.898Z,1005.98
2019-05-23T00:37:41.848Z,1005.97
2019-05-23T00:38:41.843Z,1005.97
2019-05-23T00:39:41.859Z,1006.01
2019-05-23T00:40:41.835Z,1006.04
2019-05-23T00:41:41.844Z,1006.00
2019-05-23T00:42:41.838Z,1006.05
2019-05-23T00:43:41.783Z,1006.03
2019-05-23T00:44:41.777Z,1005.96
2019-05-23T00:45:41.815Z,1006.00
2019-05-23T00:46:41.765Z,1006.01
2019-05-23T00:47:41.767Z,1006.04
2019-05-23T00:48:41.867Z,1006.01
2019-05-23T00:49:41.720Z,1006.00
2019-05-23T00:50:41.782Z,1005.99
2019-05-23T00:51:41.733Z,1006.02
2019-05-23T00:52:41.705Z,1005.95
2019-05-23T00:53:41.684Z,1005.99
2019-05-23T00:54:41.708Z,1005.99
2019-05-23T00:55:41.658Z,1005.98
2019-05-23T00:56:41.666Z,1006.00
2019-05-23T00:57:41.635Z,1006.01
2019-05-23T00:58:41.644Z,1006.00
2019-05-23T00:59:41.643Z,1006.01
2019-05-23T01:00:41.638Z,1006.06
2019-05-23T01:01:41.661Z,1006.02
2019-05-23T01:02:41.576Z,1006.01
2019-05-23T01:03:41.577Z,1006.06
2019-05-23T01:04:41.588Z,1006.03
2019-05-23T01:05:41.578Z,1006.05
2019-05-23T01:06:41.543Z,1006.03
2019-05-23T01:07:41.567Z,1006.00
2019-05-23T01:08:41.510Z,1006.02
2019-05-23T01:09:41.611Z,1006.04
2019-05-23T01:10:41.501Z,1006.04
2019-05-23T01:11:41.488Z,1006.04
2019-05-23T01:12:41.494Z,1006.08
2019-05-23T01:13:41.466Z,1006.05
2019-05-23T01:14:41.445Z,1006.03
2019-05-23T01:15:41.450Z,1006.00
2019-05-23T01:16:41.425Z,1006.07
2019-05-23T01:17:41.480Z,1006.08
2019-05-23T01:18:41.401Z,1006.07
2019-05-23T01:19:41.397Z,1006.05
2019-05-23T01:20:41.384Z,1006.07
2019-05-23T01:21:41.385Z,1006.11
2019-05-23T01:22:41.357Z,1006.10
2019-05-23T01:23:41.391Z,1006.13
2019-05-23T01:24:41.336Z,1006.13
2019-05-23T01:25:41.378Z,1006.19
2019-05-23T01:26:41.334Z,1006.17
2019-05-23T01:27:41.338Z,1006.16
2019-05-23T01:28:41.335Z,1006.13
2019-05-23T01:29:41.304Z,1006.09
2019-05-23T01:30:41.275Z,1006.15
2019-05-23T01:31:41.286Z,1006.05
2019-05-23T01:32:41.261Z,1006.09
2019-05-23T01:33:41.268Z,1006.08
2019-05-23T01:34:41.233Z,1006.07
2019-05-23T01:35:41.234Z,1006.15
2019-05-23T01:36:41.223Z,1006.11
2019-05-23T01:37:41.283Z,1006.11
2019-05-23T01:38:41.454Z,1006.13
2019-05-23T01:39:41.174Z,1006.14
2019-05-23T01:40:41.176Z,1006.13
2019-05-23T01:41:41.176Z,1006.07
2019-05-23T01:42:41.139Z,1006.11
2019-05-23T01:43:41.136Z,1006.12
2019-05-23T01:44:41.148Z,1006.12
2019-05-23T01:45:41.107Z,1006.09
2019-05-23T01:46:41.115Z,1006.10
2019-05-23T01:47:41.109Z,1006.09
2019-05-23T01:48:41.073Z,1006.14
2019-05-23T01:49:41.085Z,1006.12
2019-05-23T01:50:41.090Z,1006.11
2019-05-23T01:51:41.040Z,1006.15
2019-05-23T01:52:41.043Z,1006.10
2019-05-23T01:53:41.049Z,1006.12
2019-05-23T01:54:41.065Z,1006.15
2019-05-23T01:55:41.012Z,1006.12
2019-05-23T01:56:41.027Z,1006.11
2019-05-23T01:57:40.980Z,1006.15
2019-05-23T01:58:40.984Z,1006.06
2019-05-23T01:59:40.954Z,1006.06
2019-05-23T02:00:40.957Z,1006.10
2019-05-23T02:01:40.964Z,1006.13
2019-05-23T02:02:40.917Z,1006.12
2019-05-23T02:03:40.917Z,1006.12
2019-05-23T02:04:40.932Z,1006.05
2019-05-23T02:05:40.927Z,1006.05
2019-05-23T02:06:40.891Z,1006.06
2019-05-23T02:07:40.899Z,1006.05
2019-05-23T02:08:40.857Z,1006.07
2019-05-23T02:09:40.859Z,1006.06
2019-05-23T02:10:40.907Z,1006.12
2019-05-23T02:11:40.825Z,1006.12
2019-05-23T02:12:40.828Z,1006.13
2019-05-23T02:13:40.828Z,1006.08
2019-05-23T02:14:40.787Z,1006.10
2019-05-23T02:15:40.850Z,1006.12
2019-05-23T02:16:40.799Z,1006.10
2019-05-23T02:17:40.764Z,1006.10
2019-05-23T02:18:40.763Z,1006.09
2019-05-23T02:19:40.771Z,1006.07
2019-05-23T02:20:40.721Z,1006.08
2019-05-23T02:21:40.787Z,1006.12
2019-05-23T02:22:40.697Z,1006.09
2019-05-23T02:23:40.698Z,1006.10
2019-05-23T02:24:40.690Z,1006.05
2019-05-23T02:25:40.680Z,1006.08
2019-05-23T02:26:40.711Z,1006.04
2019-05-23T02:27:40.662Z,1006.08
2019-05-23T02:28:40.665Z,1006.06
2019-05-23T02:29:40.630Z,1006.07
2019-05-23T02:30:40.640Z,1006.06
2019-05-23T02:31:40.601Z,1006.07
2019-05-23T02:32:40.607Z,1006.08
2019-05-23T02:33:40.601Z,1006.01
2019-05-23T02:34:40.571Z,1006.06
2019-05-23T02:35:40.600Z,1006.07
2019-05-23T02:36:40.549Z,1006.13
2019-05-23T02:37:40.586Z,1006.10
2019-05-23T02:38:40.535Z,1006.12
2019-05-23T02:39:40.506Z,1006.07
2019-05-23T02:40:40.503Z,1006.11
2019-05-23T02:41:40.519Z,1006.11
2019-05-23T02:42:40.560Z,1006.12
2019-05-23T02:43:40.512Z,1006.09
2019-05-23T02:44:40.461Z,1006.12
2019-05-23T02:45:40.442Z,1006.17
2019-05-23T02:46:40.445Z,1006.13
2019-05-23T02:47:40.440Z,1006.13
2019-05-23T02:48:40.455Z,1006.18
2019-05-23T02:49:40.404Z,1006.14
2019-05-23T02:50:40.404Z,1006.14
2019-05-23T02:51:40.377Z,1006.12
2019-05-23T02:52:40.428Z,1006.10
2019-05-23T02:53:40.386Z,1006.05
2019-05-23T02:54:40.358Z,1006.08
2019-05-23T02:55:40.337Z,1006.09
2019-05-23T02:56:40.341Z,1006.09
2019-05-23T02:57:40.352Z,1006.10
2019-05-23T02:58:40.330Z,1006.12
2019-05-23T02:59:40.292Z,1006.13
2019-05-23T03:00:53.654Z,1006.12
2019-05-23T03:01:40.303Z,1006.14
2019-05-23T03:02:40.278Z,1006.16
2019-05-23T03:03:40.293Z,1006.11
2019-05-23T03:04:40.248Z,1006.09
2019-05-23T03:05:40.226Z,1006.11
2019-05-23T03:06:40.237Z,1006.11
2019-05-23T03:07:40.211Z,1006.10
2019-05-23T03:08:40.220Z,1006.10
2019-05-23T03:09:40.214Z,1006.10
2019-05-23T03:10:40.169Z,1006.12
2019-05-23T03:11:40.172Z,1006.11
2019-05-23T03:12:40.153Z,1006.08
2019-05-23T03:13:40.186Z,1006.17
2019-05-23T03:14:40.162Z,1006.11
2019-05-23T03:15:40.129Z,1006.08
2019-05-23T03:16:40.128Z,1006.10
2019-05-23T03:17:40.101Z,1006.08
2019-05-23T03:18:40.080Z,1006.08
2019-05-23T03:19:40.093Z,1006.05
2019-05-23T03:20:40.078Z,1006.03
2019-05-23T03:21:40.093Z,1006.03
2019-05-23T03:22:40.194Z,1006.05
2019-05-23T03:23:40.046Z,1006.11
2019-05-23T03:24:40.059Z,1006.09
2019-05-23T03:25:40.016Z,1006.13
2019-05-23T03:26:40.024Z,1006.05
2019-05-23T03:27:40.010Z,1006.09
2019-05-23T03:28:39.977Z,1006.09
2019-05-23T03:29:40.049Z,1006.12
2019-05-23T03:30:39.965Z,1006.06
2019-05-23T03:31:39.962Z,1006.13
2019-05-23T03:32:40.078Z,1006.10
2019-05-23T03:33:39.970Z,1006.07
2019-05-23T03:34:39.975Z,1006.02
2019-05-23T03:35:39.918Z,1006.00
2019-05-23T03:36:39.897Z,1006.03
2019-05-23T03:37:39.891Z,1006.07
2019-05-23T03:38:39.900Z,1006.05
2019-05-23T03:39:39.870Z,1005.99
2019-05-23T03:40:39.920Z,1006.07
2019-05-23T03:41:39.829Z,1006.06
2019-05-23T03:42:39.831Z,1006.05
2019-05-23T03:43:39.832Z,1006.08
2019-05-23T03:44:39.807Z,1006.04
2019-05-23T03:45:40.266Z,1006.11
2019-05-23T03:46:39.776Z,1006.10
2019-05-23T03:47:39.767Z,1006.07
2019-05-23T03:48:39.768Z,1006.03
2019-05-23T03:49:39.816Z,1006.04
2019-05-23T03:50:39.744Z,1006.08
2019-05-23T03:51:39.772Z,1006.02
2019-05-23T03:52:39.721Z,1006.00
2019-05-23T03:53:39.703Z,1005.99
2019-05-23T03:54:39.705Z,1006.00
2019-05-23T03:55:39.698Z,1006.05
2019-05-23T03:56:39.704Z,1006.04
2019-05-23T03:57:39.653Z,1006.02
2019-05-23T03:58:39.662Z,1006.08
2019-05-23T03:59:39.638Z,1006.01
2019-05-23T04:00:39.640Z,1006.03
2019-05-23T04:01:48.051Z,1006.08
2019-05-23T04:02:39.657Z,1006.07
2019-05-23T04:03:40.317Z,1006.03
2019-05-23T04:04:39.600Z,1006.01
2019-05-23T04:05:39.580Z,1006.02
2019-05-23T04:06:39.614Z,1006.03
2019-05-23T04:07:39.574Z,1006.08
2019-05-23T04:08:39.534Z,1006.04
2019-05-23T04:09:39.521Z,1006.06
2019-05-23T04:10:39.572Z,1006.04
2019-05-23T04:11:39.532Z,1006.01
2019-05-23T04:12:39.542Z,1006.12
2019-05-23T04:13:39.514Z,1006.04
2019-05-23T04:14:39.470Z,1006.07
2019-05-23T04:15:39.494Z,1006.07
2019-05-23T04:16:39.466Z,1006.05
2019-05-23T04:17:39.482Z,1006.04
2019-05-23T04:18:39.470Z,1006.10
2019-05-23T04:19:39.413Z,1006.08
2019-05-23T04:20:39.408Z,1006.06
2019-05-23T04:21:39.427Z,1006.06
2019-05-23T04:22:39.430Z,1006.07
2019-05-23T04:23:39.391Z,1006.07
2019-05-23T04:24:39.386Z,1006.04
2019-05-23T04:25:39.352Z,1006.09
2019-05-23T04:26:39.350Z,1006.03
2019-05-23T04:27:39.341Z,1006.12
2019-05-23T04:28:39.343Z,1006.11
2019-05-23T04:29:39.314Z,1006.09
2019-05-23T04:30:39.329Z,1006.10
2019-05-23T04:31:39.287Z,1006.08
2019-05-23T04:32:39.270Z,1006.07
2019-05-23T04:33:39.345Z,1006.11
2019-05-23T04:34:39.256Z,1006.13
2019-05-23T04:35:39.261Z,1006.12
2019-05-23T04:36:39.255Z,1006.12
2019-05-23T04:37:39.271Z,1006.19
2019-05-23T04:38:39.282Z,1006.17
2019-05-23T04:39:39.217Z,1006.12
2019-05-23T04:40:39.188Z,1006.15
2019-05-23T04:41:39.194Z,1006.14
2019-05-23T04:42:39.212Z,1006.17
2019-05-23T04:43:39.150Z,1006.16
2019-05-23T04:44:43.826Z,1006.15
2019-05-23T04:45:40.155Z,1006.13
2019-05-23T04:46:39.126Z,1006.17
2019-05-23T04:47:39.122Z,1006.17
2019-05-23T04:48:39.092Z,1006.16
2019-05-23T04:49:39.132Z,1006.17
2019-05-23T04:50:39.086Z,1006.20
2019-05-23T04:51:39.089Z,1006.17
2019-05-23T04:52:39.068Z,1006.19
2019-05-23T04:53:39.067Z,1006.24
2019-05-23T04:54:39.082Z,1006.26
2019-05-23T04:55:39.040Z,1006.29
2019-05-23T04:56:39.019Z,1006.29
2019-05-23T04:57:38.993Z,1006.27
2019-05-23T04:58:46.606Z,1006.30
2019-05-23T04:59:39.002Z,1006.28
2019-05-23T05:00:38.996Z,1006.27
2019-05-23T05:01:38.958Z,1006.32
2019-05-23T05:02:38.956Z,1006.27
2019-05-23T05:03:38.931Z,1006.29
2019-05-23T05:04:38.944Z,1006.30
2019-05-23T05:05:38.942Z,1006.34
2019-05-23T05:06:38.895Z,1006.33
2019-05-23T05:07:38.915Z,1006.32
2019-05-23T05:08:38.902Z,1006.29
2019-05-23T05:09:38.968Z,1006.30
2019-05-23T05:10:38.917Z,1006.30
2019-05-23T05:11:38.839Z,1006.34
2019-05-23T05:12:38.828Z,1006.36
2019-05-23T05:13:38.831Z,1006.29
2019-05-23T05:14:38.828Z,1006.38
2019-05-23T05:15:38.841Z,1006.42
2019-05-23T05:16:38.795Z,1006.36
2019-05-23T05:17:38.773Z,1006.32
2019-05-23T05:18:38.768Z,1006.34
2019-05-23T05:19:38.769Z,1006.38
2019-05-23T05:20:38.781Z,1006.34
2019-05-23T05:21:38.748Z,1006.39
2019-05-23T05:22:38.744Z,1006.38
2019-05-23T05:23:38.708Z,1006.36
2019-05-23T05:24:40.237Z,1006.39
2019-05-23T05:25:38.706Z,1006.33
2019-05-23T05:26:38.728Z,1006.36
2019-05-23T05:27:38.681Z,1006.37
2019-05-23T05:28:38.684Z,1006.36
2019-05-23T05:29:38.681Z,1006.31
2019-05-23T05:30:38.638Z,1006.33
2019-05-23T05:31:38.643Z,1006.37
2019-05-23T05:32:44.662Z,1006.35
2019-05-23T05:33:39.597Z,1006.41
2019-05-23T05:34:38.591Z,1006.34
2019-05-23T05:35:38.623Z,1006.40
2019-05-23T05:36:38.637Z,1006.38
2019-05-23T05:37:38.581Z,1006.39
2019-05-23T05:38:38.548Z,1006.42
2019-05-23T05:39:38.559Z,1006.42
2019-05-23T05:40:38.520Z,1006.47
2019-05-23T05:41:38.510Z,1006.47
2019-05-23T05:42:38.528Z,1006.47
2019-05-23T05:43:38.487Z,1006.48
2019-05-23T05:44:38.490Z,1006.47
2019-05-23T05:45:38.483Z,1006.53
2019-05-23T05:46:38.461Z,1006.50
2019-05-23T05:47:39.474Z,1006.46
2019-05-23T05:48:38.463Z,1006.46
2019-05-23T05:49:42.095Z,1006.48
2019-05-23T05:50:38.427Z,1006.47
2019-05-23T05:51:38.443Z,1006.46
2019-05-23T05:52:38.491Z,1006.48
2019-05-23T05:53:38.398Z,1006.52
2019-05-23T05:54:38.396Z,1006.48
2019-05-23T05:55:38.389Z,1006.48
2019-05-23T05:56:38.384Z,1006.49
2019-05-23T05:57:38.437Z,1006.54
2019-05-23T05:58:38.439Z,1006.52
2019-05-23T05:59:38.389Z,1006.50
2019-05-23T06:00:38.325Z,1006.51
2019-05-23T06:01:38.307Z,1006.53
2019-05-23T06:02:38.353Z,1006.50
2019-05-23T06:03:38.347Z,1006.51
2019-05-23T06:04:38.271Z,1006.57
2019-05-23T06:05:38.395Z,1006.60
2019-05-23T06:06:38.426Z,1006.52
2019-05-23T06:07:38.328Z,1006.58
2019-05-23T06:08:38.544Z,1006.58
2019-05-23T06:09:38.278Z,1006.61
2019-05-23T06:10:38.197Z,1006.63
2019-05-23T06:11:38.247Z,1006.59
2019-05-23T06:12:38.188Z,1006.63
2019-05-23T06:13:38.171Z,1006.65
2019-05-23T06:14:38.183Z,1006.65
2019-05-23T06:15:38.145Z,1006.62
2019-05-23T06:16:38.196Z,1006.67
2019-05-23T06:17:38.124Z,1006.65
2019-05-23T06:18:38.143Z,1006.67
2019-05-23T06:19:38.126Z,1006.62
2019-05-23T06:20:40.738Z,1006.69
2019-05-23T06:21:38.120Z,1006.66
2019-05-23T06:22:38.078Z,1006.59
2019-05-23T06:23:38.086Z,1006.58
2019-05-23T06:24:46.885Z,1006.57
2019-05-23T06:25:39.067Z,1006.62
2019-05-23T06:26:38.043Z,1006.58
2019-05-23T06:27:38.238Z,1006.63
2019-05-23T06:28:38.014Z,1006.58
2019-05-23T06:29:38.003Z,1006.55
2019-05-23T06:30:38.028Z,1006.54
2019-05-23T06:31:37.978Z,1006.58
2019-05-23T06:32:37.963Z,1006.58
2019-05-23T06:33:38.029Z,1006.60
2019-05-23T06:34:37.937Z,1006.54
2019-05-23T06:35:37.969Z,1006.59
2019-05-23T06:36:38.213Z,1006.59
2019-05-23T06:37:37.930Z,1006.60
2019-05-23T06:38:37.924Z,1006.60
2019-05-23T06:39:37.893Z,1006.61
2019-05-23T06:40:37.871Z,1006.65
2019-05-23T06:41:37.882Z,1006.62
2019-05-23T06:42:37.871Z,1006.57
2019-05-23T06:43:37.854Z,1006.55
2019-05-23T06:44:37.841Z,1006.58
2019-05-23T06:45:37.865Z,1006.63
2019-05-23T06:46:37.856Z,1006.62
2019-05-23T06:47:39.792Z,1006.63
2019-05-23T06:48:37.790Z,1006.57
2019-05-23T06:49:37.788Z,1006.61
2019-05-23T06:50:37.763Z,1006.61
2019-05-23T06:51:37.803Z,1006.63
2019-05-23T06:52:37.745Z,1006.67
2019-05-23T06:53:37.742Z,1006.63
2019-05-23T06:54:37.720Z,1006.64
2019-05-23T06:55:37.705Z,1006.60
2019-05-23T06:56:37.708Z,1006.63
2019-05-23T06:57:37.700Z,1006.60
2019-05-23T06:58:37.688Z,1006.60
2019-05-23T06:59:37.662Z,1006.63
2019-05-23T07:00:37.680Z,1006.61
2019-05-23T07:01:37.674Z,1006.64
2019-05-23T07:02:37.668Z,1006.59
2019-05-23T07:03:43.124Z,1006.59
2019-05-23T07:04:38.727Z,1006.57
2019-05-23T07:05:37.611Z,1006.60
2019-05-23T07:06:37.606Z,1006.62
2019-05-23T07:07:37.648Z,1006.62
2019-05-23T07:08:37.591Z,1006.64
2019-05-23T07:09:37.569Z,1006.59
2019-05-23T07:10:37.540Z,1006.60
2019-05-23T07:11:37.588Z,1006.58
2019-05-23T07:12:37.530Z,1006.64
2019-05-23T07:13:37.508Z,1006.60
2019-05-23T07:14:37.493Z,1006.58
2019-05-23T07:15:37.488Z,1006.62
2019-05-23T07:16:37.520Z,1006.63
2019-05-23T07:17:37.481Z,1006.60
2019-05-23T07:18:37.485Z,1006.64
2019-05-23T07:19:37.486Z,1006.61
2019-05-23T07:20:37.461Z,1006.68
2019-05-23T07:21:37.464Z,1006.67
2019-05-23T07:22:37.464Z,1006.70
2019-05-23T07:23:37.499Z,1006.68
2019-05-23T07:24:37.435Z,1006.68
2019-05-23T07:25:37.387Z,1006.69
2019-05-23T07:26:37.430Z,1006.69
2019-05-23T07:27:37.369Z,1006.70
2019-05-23T07:28:37.387Z,1006.72
2019-05-23T07:29:37.351Z,1006.73
2019-05-23T07:30:37.530Z,1006.71
2019-05-23T07:31:37.309Z,1006.72
2019-05-23T07:32:37.573Z,1006.68
2019-05-23T07:33:37.305Z,1006.71
2019-05-23T07:34:37.280Z,1006.70
2019-05-23T07:35:37.282Z,1006.68
2019-05-23T07:36:37.277Z,1006.69
2019-05-23T07:37:37.289Z,1006.69
2019-05-23T07:38:37.231Z,1006.73
2019-05-23T07:39:37.218Z,1006.70
2019-05-23T07:40:37.216Z,1006.70
2019-05-23T07:41:37.215Z,1006.70
2019-05-23T07:42:37.221Z,1006.73
2019-05-23T07:43:37.187Z,1006.75
2019-05-23T07:44:47.992Z,1006.73
2019-05-23T07:45:39.784Z,1006.73
2019-05-23T07:46:37.153Z,1006.76
2019-05-23T07:47:40.085Z,1006.75
2019-05-23T07:48:37.122Z,1006.79
2019-05-23T07:49:37.135Z,1006.76
2019-05-23T07:50:37.137Z,1006.76
2019-05-23T07:51:37.101Z,1006.75
2019-05-23T07:52:37.118Z,1006.77
2019-05-23T07:53:37.123Z,1006.77
2019-05-23T07:54:37.059Z,1006.78
2019-05-23T07:55:37.063Z,1006.73
2019-05-23T07:56:37.043Z,1006.78
2019-05-23T07:57:37.061Z,1006.70
2019-05-23T07:58:37.030Z,1006.71
2019-05-23T07:59:37.030Z,1006.75
2019-05-23T08:00:37.028Z,1006.71
2019-05-23T08:01:37.003Z,1006.72
2019-05-23T08:02:37.157Z,1006.72
2019-05-23T08:03:36.961Z,1006.73
2019-05-23T08:04:36.983Z,1006.67
2019-05-23T08:05:36.938Z,1006.68
2019-05-23T08:06:36.924Z,1006.70
2019-05-23T08:07:36.979Z,1006.70
2019-05-23T08:08:36.925Z,1006.75
2019-05-23T08:09:36.899Z,1006.68
2019-05-23T08:10:36.932Z,1006.74
2019-05-23T08:11:36.868Z,1006.66
2019-05-23T08:12:36.927Z,1006.64
2019-05-23T08:13:36.853Z,1006.65
2019-05-23T08:14:36.850Z,1006.64
2019-05-23T08:15:36.934Z,1006.62
2019-05-23T08:16:37.028Z,1006.64
2019-05-23T08:17:36.856Z,1006.67
2019-05-23T08:18:36.801Z,1006.64
2019-05-23T08:19:49.181Z,1006.68
2019-05-23T08:20:37.948Z,1006.69
2019-05-23T08:21:36.777Z,1006.65
2019-05-23T08:22:36.793Z,1006.63
2019-05-23T08:23:36.756Z,1006.63
2019-05-23T08:24:36.734Z,1006.66
2019-05-23T08:25:36.744Z,1006.66
2019-05-23T08:26:36.711Z,1006.63
2019-05-23T08:27:36.713Z,1006.60
2019-05-23T08:28:36.718Z,1006.61
2019-05-23T08:29:36.670Z,1006.54
2019-05-23T08:30:36.677Z,1006.55
2019-05-23T08:31:36.654Z,1006.53
2019-05-23T08:32:36.649Z,1006.52
2019-05-23T08:33:36.655Z,1006.54
2019-05-23T08:34:42.522Z,1006.57
2019-05-23T08:35:37.621Z,1006.57
2019-05-23T08:36:36.614Z,1006.52
2019-05-23T08:37:36.605Z,1006.50
2019-05-23T08:38:36.642Z,1006.54
2019-05-23T08:39:36.575Z,1006.48
2019-05-23T08:40:36.565Z,1006.45
2019-05-23T08:41:36.540Z,1006.46
2019-05-23T08:42:36.572Z,1006.47
2019-05-23T08:43:36.558Z,1006.45
2019-05-23T08:44:36.528Z,1006.50
2019-05-23T08:45:36.569Z,1006.49
2019-05-23T08:46:36.486Z,1006.51
2019-05-23T08:47:36.475Z,1006.47
2019-05-23T08:48:36.493Z,1006.47
2019-05-23T08:49:36.459Z,1006.44
2019-05-23T08:50:36.465Z,1006.46
2019-05-23T08:51:36.485Z,1006.47
2019-05-23T08:52:36.422Z,1006.47
2019-05-23T08:53:36.485Z,1006.52
2019-05-23T08:54:36.416Z,1006.52
2019-05-23T08:55:36.395Z,1006.53
2019-05-23T08:56:36.406Z,1006.49
2019-05-23T08:57:36.406Z,1006.47
2019-05-23T08:58:36.356Z,1006.50
2019-05-23T08:59:36.795Z,1006.53
2019-05-23T09:00:36.864Z,1006.53
2019-05-23T09:01:36.337Z,1006.52
2019-05-23T09:02:36.332Z,1006.54
2019-05-23T09:03:36.342Z,1006.50
2019-05-23T09:04:36.312Z,1006.46
2019-05-23T09:05:36.283Z,1006.49
2019-05-23T09:06:36.265Z,1006.51
2019-05-23T09:07:36.363Z,1006.52
2019-05-23T09:08:36.290Z,1006.45
2019-05-23T09:09:36.285Z,1006.45
2019-05-23T09:10:36.436Z,1006.48
2019-05-23T09:11:36.242Z,1006.51
2019-05-23T09:12:36.205Z,1006.56
2019-05-23T09:13:36.215Z,1006.55
2019-05-23T09:14:36.215Z,1006.56
2019-05-23T09:15:36.218Z,1006.55
2019-05-23T09:16:36.172Z,1006.55
2019-05-23T09:17:51.594Z,1006.53
2019-05-23T09:18:37.179Z,1006.54
2019-05-23T09:19:36.150Z,1006.57
2019-05-23T09:20:36.155Z,1006.60
2019-05-23T09:21:36.114Z,1006.56
2019-05-23T09:22:36.091Z,1006.60
2019-05-23T09:23:36.261Z,1006.61
2019-05-23T09:24:36.093Z,1006.58
2019-05-23T09:25:36.128Z,1006.56
2019-05-23T09:26:36.049Z,1006.56
2019-05-23T09:27:36.146Z,1006.59
2019-05-23T09:28:36.439Z,1006.58
2019-05-23T09:29:36.046Z,1006.61
2019-05-23T09:30:36.033Z,1006.53
2019-05-23T09:31:36.035Z,1006.53
2019-05-23T09:32:35.985Z,1006.53
2019-05-23T09:33:35.993Z,1006.49
2019-05-23T09:34:35.964Z,1006.45
2019-05-23T09:35:36.099Z,1006.54
2019-05-23T09:36:35.956Z,1006.50
2019-05-23T09:37:35.976Z,1006.43
2019-05-23T09:38:35.971Z,1006.42
2019-05-23T09:39:35.906Z,1006.45
2019-05-23T09:40:35.999Z,1006.47
2019-05-23T09:41:35.894Z,1006.47
2019-05-23T09:42:35.901Z,1006.49
2019-05-23T09:43:35.903Z,1006.47
2019-05-23T09:44:35.911Z,1006.46
2019-05-23T09:45:35.902Z,1006.48
2019-05-23T09:46:35.854Z,1006.51
2019-05-23T09:47:35.822Z,1006.48
2019-05-23T09:48:35.830Z,1006.48
2019-05-23T09:49:35.859Z,1006.53
2019-05-23T09:50:35.879Z,1006.54
2019-05-23T09:51:35.788Z,1006.44
2019-05-23T09:52:35.777Z,1006.45
2019-05-23T09:53:35.957Z,1006.46
2019-05-23T09:54:35.794Z,1006.46
2019-05-23T09:55:35.731Z,1006.48
2019-05-23T09:56:35.723Z,1006.46
2019-05-23T09:57:35.763Z,1006.45
2019-05-23T09:58:36.286Z,1006.50
2019-05-23T09:59:35.705Z,1006.43
2019-05-23T10:00:35.695Z,1006.44
2019-05-23T10:01:35.706Z,1006.49
2019-05-23T10:02:35.669Z,1006.50
2019-05-23T10:03:35.678Z,1006.45
2019-05-23T10:04:35.734Z,1006.47
2019-05-23T10:05:43.505Z,1006.50
2019-05-23T10:06:36.616Z,1006.43
2019-05-23T10:07:35.605Z,1006.41
2019-05-23T10:08:35.701Z,1006.45
2019-05-23T10:09:35.586Z,1006.35
2019-05-23T10:10:35.589Z,1006.37
2019-05-23T10:11:35.571Z,1006.37
2019-05-23T10:12:35.543Z,1006.32
2019-05-23T10:13:39.217Z,1006.33
2019-05-23T10:14:35.525Z,1006.36
2019-05-23T10:15:35.529Z,1006.34
2019-05-23T10:16:35.516Z,1006.33
2019-05-23T10:17:35.526Z,1006.32
2019-05-23T10:18:35.524Z,1006.34
2019-05-23T10:19:35.541Z,1006.38
2019-05-23T10:20:35.470Z,1006.39
2019-05-23T10:21:35.461Z,1006.36
2019-05-23T10:22:35.450Z,1006.35
2019-05-23T10:23:35.439Z,1006.33
2019-05-23T10:24:35.499Z,1006.37
2019-05-23T10:25:35.404Z,1006.32
2019-05-23T10:26:35.390Z,1006.33
2019-05-23T10:27:35.485Z,1006.39
2019-05-23T10:28:35.384Z,1006.32
2019-05-23T10:29:35.399Z,1006.40
2019-05-23T10:30:35.349Z,1006.31
2019-05-23T10:31:35.348Z,1006.29
2019-05-23T10:32:35.326Z,1006.28
2019-05-23T10:33:35.320Z,1006.29
2019-05-23T10:34:35.476Z,1006.25
2019-05-23T10:35:35.311Z,1006.30
2019-05-23T10:36:35.283Z,1006.30
2019-05-23T10:37:35.271Z,1006.19
2019-05-23T10:38:35.270Z,1006.21
2019-05-23T10:39:35.342Z,1006.18
2019-05-23T10:40:35.272Z,1006.20
2019-05-23T10:41:35.251Z,1006.14
2019-05-23T10:42:35.223Z,1006.14
2019-05-23T10:43:35.219Z,1006.14
2019-05-23T10:44:35.215Z,1006.18
2019-05-23T10:45:35.220Z,1006.17
2019-05-23T10:46:35.192Z,1006.16
2019-05-23T10:47:35.187Z,1006.13
2019-05-23T10:48:35.295Z,1006.14
2019-05-23T10:49:35.228Z,1006.12
2019-05-23T10:50:44.136Z,1006.08
2019-05-23T10:51:36.137Z,1006.10
2019-05-23T10:52:35.177Z,1006.12
2019-05-23T10:53:35.098Z,1006.05
2019-05-23T10:54:35.092Z,1005.98
2019-05-23T10:55:35.084Z,1006.04
2019-05-23T10:56:35.092Z,1006.11
2019-05-23T10:57:35.065Z,1006.09
2019-05-23T10:58:35.081Z,1005.99
2019-05-23T10:59:35.039Z,1006.01
2019-05-23T11:00:35.030Z,1005.99
2019-05-23T11:01:35.218Z,1006.03
2019-05-23T11:02:35.014Z,1006.01
2019-05-23T11:03:34.996Z,1006.00
2019-05-23T11:04:35.011Z,1006.01
2019-05-23T11:05:34.966Z,1005.99
2019-05-23T11:06:35.009Z,1005.98
2019-05-23T11:07:34.969Z,1005.97
2019-05-23T11:08:34.941Z,1005.97
2019-05-23T11:09:38.338Z,1005.95
2019-05-23T11:10:34.944Z,1006.05
2019-05-23T11:11:34.906Z,1006.01
2019-05-23T11:12:34.934Z,1006.01
2019-05-23T11:13:34.895Z,1006.02
2019-05-23T11:14:34.869Z,1005.98
2019-05-23T11:15:34.877Z,1005.98
2019-05-23T11:16:34.846Z,1006.03
2019-05-23T11:17:34.862Z,1006.08
2019-05-23T11:18:34.825Z,1006.08
2019-05-23T11:19:34.845Z,1006.09
2019-05-23T11:20:36.113Z,1006.06
2019-05-23T11:21:34.803Z,1006.09
2019-05-23T11:22:34.785Z,1005.98
2019-05-23T11:23:34.768Z,1006.09
2019-05-23T11:24:34.768Z,1006.09
2019-05-23T11:25:34.767Z,1006.00
2019-05-23T11:26:34.756Z,1005.99
2019-05-23T11:27:34.771Z,1006.05
2019-05-23T11:28:34.797Z,1006.08
2019-05-23T11:29:34.710Z,1006.08
2019-05-23T11:30:34.704Z,1005.99
2019-05-23T11:31:34.746Z,1006.07
2019-05-23T11:32:34.689Z,1005.99
2019-05-23T11:33:34.699Z,1006.01
2019-05-23T11:34:34.657Z,1006.02
2019-05-23T11:35:34.658Z,1006.04
2019-05-23T11:36:36.657Z,1006.01
2019-05-23T11:37:34.640Z,1005.92
2019-05-23T11:38:34.624Z,1005.91
2019-05-23T11:39:42.242Z,1005.96
2019-05-23T11:40:34.679Z,1005.98
2019-05-23T11:41:34.575Z,1006.01
2019-05-23T11:42:34.587Z,1006.02
2019-05-23T11:43:34.558Z,1006.02
2019-05-23T11:44:34.550Z,1005.99
2019-05-23T11:45:34.531Z,1005.94
2019-05-23T11:46:34.648Z,1005.92
2019-05-23T11:47:34.530Z,1005.94
2019-05-23T11:48:34.520Z,1005.90
2019-05-23T11:49:34.595Z,1005.91
2019-05-23T11:50:34.498Z,1005.91
2019-05-23T11:51:34.509Z,1005.89
2019-05-23T11:52:34.502Z,1005.88
2019-05-23T11:53:34.466Z,1005.92
2019-05-23T11:54:34.450Z,1005.83
2019-05-23T11:55:34.443Z,1005.79
2019-05-23T11:56:34.454Z,1005.84
2019-05-23T11:57:37.570Z,1005.89
2019-05-23T11:58:34.405Z,1005.85
2019-05-23T11:59:34.386Z,1005.82
2019-05-23T12:00:34.411Z,1005.75
2019-05-23T12:01:34.413Z,1005.81
2019-05-23T12:02:34.376Z,1005.80
2019-05-23T12:03:34.335Z,1005.75
2019-05-23T12:04:34.335Z,1005.79
2019-05-23T12:05:34.319Z,1005.78